Essex, Maryland
Current Conditions -  °F | °C
As of 12:54 PM on Thursday 27 Nov 2014 (Local Time) from KMTN Reporting Station
Scattered Clouds Scattered Clouds  
Wind Chill: 39°   Ceiling: Unl
Heat Index: 45°   Visibility: 10mi
Dew Point: 32°   Wind: 10mph
Humidity: 61%   Direction: 300°WNW
Pressure: 30.05"   Gusts: NA
Location:  39.31°N, 76.48°W
Report Text: KMTN 271754Z 30009KT 10SM SCT030 SCT050 07/00 A3005
Loading
Personal Weather Stations






























Interactive Weather Map New forecast layout! Learn more

10-Day Weather Forecast

Advertisements
Track Severe Weather on mobile